sensor_id;sensor_type;location;lat;lon;timestamp;P1;durP1;ratioP1;P2;durP2;ratioP2
39032;SDS011;24794;51.982;5.878;2023-08-30T00:00:23;4.93;;;3.92;;
39032;SDS011;24794;51.982;5.878;2023-08-30T00:01:24;5.80;;;3.75;;
39032;SDS011;24794;51.982;5.878;2023-08-30T00:02:24;5.30;;;3.97;;
39032;SDS011;24794;51.982;5.878;2023-08-30T00:03:25;5.10;;;4.20;;
39032;SDS011;24794;51.982;5.878;2023-08-30T00:04:25;5.38;;;4.20;;
39032;SDS011;24794;51.982;5.878;2023-08-30T00:05:26;5.15;;;3.78;;
39032;SDS011;24794;51.982;5.878;2023-08-30T00:06:27;6.45;;;4.00;;
39032;SDS011;24794;51.982;5.878;2023-08-30T00:07:28;7.57;;;4.25;;
39032;SDS011;24794;51.982;5.878;2023-08-30T00:08:29;6.80;;;4.20;;
39032;SDS011;24794;51.982;5.878;2023-08-30T00:09:30;5.30;;;4.38;;
39032;SDS011;24794;51.982;5.878;2023-08-30T00:10:30;5.22;;;4.25;;
39032;SDS011;24794;51.982;5.878;2023-08-30T00:11:31;5.30;;;4.03;;
39032;SDS011;24794;51.982;5.878;2023-08-30T00:12:32;6.45;;;3.97;;
39032;SDS011;24794;51.982;5.878;2023-08-30T00:13:33;6.47;;;3.70;;
39032;SDS011;24794;51.982;5.878;2023-08-30T00:14:34;5.68;;;3.70;;
39032;SDS011;24794;51.982;5.878;2023-08-30T00:15:34;4.53;;;3.80;;
39032;SDS011;24794;51.982;5.878;2023-08-30T00:16:35;5.03;;;3.88;;
39032;SDS011;24794;51.982;5.878;2023-08-30T00:17:38;8.02;;;4.28;;
39032;SDS011;24794;51.982;5.878;2023-08-30T00:18:39;4.93;;;3.90;;
39032;SDS011;24794;51.982;5.878;2023-08-30T00:19:39;6.43;;;3.80;;
39032;SDS011;24794;51.982;5.878;2023-08-30T00:20:40;5.78;;;4.25;;
39032;SDS011;24794;51.982;5.878;2023-08-30T00:21:41;6.70;;;4.28;;
39032;SDS011;24794;51.982;5.878;2023-08-30T00:22:42;10.50;;;4.50;;
39032;SDS011;24794;51.982;5.878;2023-08-30T00:23:43;5.93;;;4.40;;
39032;SDS011;24794;51.982;5.878;2023-08-30T00:24:44;6.30;;;4.38;;
39032;SDS011;24794;51.982;5.878;2023-08-30T00:25:45;5.40;;;4.00;;
39032;SDS011;24794;51.982;5.878;2023-08-30T00:26:45;5.47;;;4.03;;
39032;SDS011;24794;51.982;5.878;2023-08-30T00:27:46;5.55;;;3.97;;
39032;SDS011;24794;51.982;5.878;2023-08-30T00:28:46;5.40;;;4.15;;
39032;SDS011;24794;51.982;5.878;2023-08-30T00:29:47;5.85;;;4.55;;
39032;SDS011;24794;51.982;5.878;2023-08-30T00:30:52;6.90;;;4.72;;
39032;SDS011;24794;51.982;5.878;2023-08-30T00:31:54;6.70;;;4.20;;
39032;SDS011;24794;51.982;5.878;2023-08-30T00:32:55;4.65;;;3.80;;
39032;SDS011;24794;51.982;5.878;2023-08-30T00:33:55;5.90;;;3.67;;
39032;SDS011;24794;51.982;5.878;2023-08-30T00:34:56;6.30;;;3.90;;
39032;SDS011;24794;51.982;5.878;2023-08-30T00:35:57;6.13;;;3.92;;
39032;SDS011;24794;51.982;5.878;2023-08-30T00:36:58;6.43;;;4.10;;
39032;SDS011;24794;51.982;5.878;2023-08-30T00:37:58;5.18;;;4.10;;
39032;SDS011;24794;51.982;5.878;2023-08-30T00:38:59;5.35;;;4.40;;
39032;SDS011;24794;51.982;5.878;2023-08-30T00:39:59;5.50;;;4.13;;
39032;SDS011;24794;51.982;5.878;2023-08-30T00:41:00;6.28;;;3.90;;
39032;SDS011;24794;51.982;5.878;2023-08-30T00:42:00;6.78;;;4.28;;
39032;SDS011;24794;51.982;5.878;2023-08-30T00:43:06;5.75;;;4.15;;
39032;SDS011;24794;51.982;5.878;2023-08-30T00:44:07;6.18;;;3.75;;
39032;SDS011;24794;51.982;5.878;2023-08-30T00:45:08;6.75;;;4.22;;
39032;SDS011;24794;51.982;5.878;2023-08-30T00:46:09;5.57;;;4.03;;
39032;SDS011;24794;51.982;5.878;2023-08-30T00:47:09;6.03;;;4.55;;
39032;SDS011;24794;51.982;5.878;2023-08-30T00:48:10;5.10;;;4.00;;
39032;SDS011;24794;51.982;5.878;2023-08-30T00:49:11;5.80;;;3.80;;
39032;SDS011;24794;51.982;5.878;2023-08-30T00:50:13;5.63;;;3.60;;
39032;SDS011;24794;51.982;5.878;2023-08-30T00:51:14;6.40;;;4.57;;
39032;SDS011;24794;51.982;5.878;2023-08-30T00:52:14;5.75;;;4.28;;
39032;SDS011;24794;51.982;5.878;2023-08-30T00:53:15;6.22;;;4.57;;
39032;SDS011;24794;51.982;5.878;2023-08-30T00:54:16;6.05;;;4.40;;
39032;SDS011;24794;51.982;5.878;2023-08-30T00:55:17;6.78;;;4.65;;
39032;SDS011;24794;51.982;5.878;2023-08-30T00:56:17;5.65;;;4.25;;
39032;SDS011;24794;51.982;5.878;2023-08-30T00:57:19;4.50;;;3.78;;
39032;SDS011;24794;51.982;5.878;2023-08-30T00:58:20;6.50;;;4.70;;
39032;SDS011;24794;51.982;5.878;2023-08-30T00:59:21;7.10;;;4.15;;
39032;SDS011;24794;51.982;5.878;2023-08-30T01:00:22;4.90;;;3.95;;
39032;SDS011;24794;51.982;5.878;2023-08-30T01:01:23;5.07;;;4.03;;
39032;SDS011;24794;51.982;5.878;2023-08-30T01:02:24;6.45;;;4.10;;
39032;SDS011;24794;51.982;5.878;2023-08-30T01:03:24;5.80;;;4.50;;
39032;SDS011;24794;51.982;5.878;2023-08-30T01:04:25;6.63;;;3.97;;
39032;SDS011;24794;51.982;5.878;2023-08-30T01:05:25;4.72;;;3.85;;
39032;SDS011;24794;51.982;5.878;2023-08-30T01:06:26;6.35;;;3.80;;
39032;SDS011;24794;51.982;5.878;2023-08-30T01:07:26;6.22;;;4.25;;
39032;SDS011;24794;51.982;5.878;2023-08-30T01:08:27;5.47;;;4.18;;
39032;SDS011;24794;51.982;5.878;2023-08-30T01:09:28;4.93;;;4.20;;
39032;SDS011;24794;51.982;5.878;2023-08-30T01:10:33;6.10;;;4.70;;
39032;SDS011;24794;51.982;5.878;2023-08-30T01:13:05;5.60;;;3.65;;
39032;SDS011;24794;51.982;5.878;2023-08-30T01:14:09;5.40;;;4.47;;
39032;SDS011;24794;51.982;5.878;2023-08-30T01:15:19;5.53;;;4.25;;
39032;SDS011;24794;51.982;5.878;2023-08-30T01:16:20;6.00;;;4.22;;
39032;SDS011;24794;51.982;5.878;2023-08-30T01:17:23;5.32;;;4.05;;
39032;SDS011;24794;51.982;5.878;2023-08-30T01:18:26;6.57;;;4.10;;
39032;SDS011;24794;51.982;5.878;2023-08-30T01:20:39;6.32;;;4.28;;
39032;SDS011;24794;51.982;5.878;2023-08-30T01:21:50;4.55;;;3.83;;
39032;SDS011;24794;51.982;5.878;2023-08-30T01:23:10;5.53;;;4.30;;
39032;SDS011;24794;51.982;5.878;2023-08-30T01:24:26;5.10;;;4.10;;
39032;SDS011;24794;51.982;5.878;2023-08-30T01:25:45;5.20;;;3.97;;
39032;SDS011;24794;51.982;5.878;2023-08-30T01:27:07;7.13;;;3.85;;
39032;SDS011;24794;51.982;5.878;2023-08-30T01:28:12;4.80;;;3.85;;
39032;SDS011;24794;51.982;5.878;2023-08-30T01:29:15;7.55;;;4.18;;
39032;SDS011;24794;51.982;5.878;2023-08-30T01:30:18;6.45;;;4.40;;
39032;SDS011;24794;51.982;5.878;2023-08-30T01:31:21;6.30;;;4.50;;
39032;SDS011;24794;51.982;5.878;2023-08-30T01:32:24;5.63;;;4.15;;
39032;SDS011;24794;51.982;5.878;2023-08-30T01:33:26;4.88;;;3.78;;
39032;SDS011;24794;51.982;5.878;2023-08-30T01:34:30;6.95;;;4.53;;
39032;SDS011;24794;51.982;5.878;2023-08-30T01:35:32;5.40;;;4.25;;
39032;SDS011;24794;51.982;5.878;2023-08-30T01:36:35;4.72;;;3.90;;
39032;SDS011;24794;51.982;5.878;2023-08-30T01:37:36;5.30;;;3.53;;
39032;SDS011;24794;51.982;5.878;2023-08-30T01:38:38;6.32;;;4.03;;
39032;SDS011;24794;51.982;5.878;2023-08-30T01:39:40;6.30;;;4.10;;
39032;SDS011;24794;51.982;5.878;2023-08-30T01:40:42;5.60;;;3.92;;
39032;SDS011;24794;51.982;5.878;2023-08-30T01:41:43;5.43;;;4.03;;
39032;SDS011;24794;51.982;5.878;2023-08-30T01:42:46;6.18;;;4.20;;
39032;SDS011;24794;51.982;5.878;2023-08-30T01:43:48;5.70;;;4.30;;
39032;SDS011;24794;51.982;5.878;2023-08-30T01:44:51;5.97;;;4.60;;
39032;SDS011;24794;51.982;5.878;2023-08-30T01:45:54;5.90;;;4.47;;
39032;SDS011;24794;51.982;5.878;2023-08-30T01:46:56;5.20;;;3.90;;
39032;SDS011;24794;51.982;5.878;2023-08-30T01:47:58;5.60;;;4.45;;
39032;SDS011;24794;51.982;5.878;2023-08-30T01:48:59;5.18;;;4.00;;
39032;SDS011;24794;51.982;5.878;2023-08-30T01:50:01;7.85;;;4.85;;
39032;SDS011;24794;51.982;5.878;2023-08-30T01:51:03;5.63;;;4.18;;
39032;SDS011;24794;51.982;5.878;2023-08-30T01:52:05;5.20;;;4.10;;
39032;SDS011;24794;51.982;5.878;2023-08-30T01:53:07;6.53;;;4.47;;
39032;SDS011;24794;51.982;5.878;2023-08-30T01:54:09;5.82;;;4.75;;
39032;SDS011;24794;51.982;5.878;2023-08-30T01:55:13;5.40;;;4.40;;
39032;SDS011;24794;51.982;5.878;2023-08-30T01:56:14;6.22;;;4.03;;
39032;SDS011;24794;51.982;5.878;2023-08-30T01:57:15;4.95;;;3.88;;
39032;SDS011;24794;51.982;5.878;2023-08-30T01:58:15;5.13;;;3.92;;
39032;SDS011;24794;51.982;5.878;2023-08-30T01:59:16;5.18;;;4.30;;
39032;SDS011;24794;51.982;5.878;2023-08-30T02:00:17;6.95;;;4.10;;
39032;SDS011;24794;51.982;5.878;2023-08-30T02:01:17;5.15;;;4.13;;
39032;SDS011;24794;51.982;5.878;2023-08-30T02:02:18;5.85;;;4.38;;
39032;SDS011;24794;51.982;5.878;2023-08-30T02:03:18;6.68;;;4.53;;
39032;SDS011;24794;51.982;5.878;2023-08-30T02:04:19;6.80;;;4.15;;
39032;SDS011;24794;51.982;5.878;2023-08-30T02:05:19;8.10;;;4.30;;
39032;SDS011;24794;51.982;5.878;2023-08-30T02:06:21;5.38;;;4.13;;
39032;SDS011;24794;51.982;5.878;2023-08-30T02:07:37;7.00;;;4.57;;
39032;SDS011;24794;51.982;5.878;2023-08-30T02:09:14;4.03;;;3.63;;
39032;SDS011;24794;51.982;5.878;2023-08-30T02:10:37;5.47;;;4.03;;
39032;SDS011;24794;51.982;5.878;2023-08-30T02:11:42;5.55;;;4.13;;
39032;SDS011;24794;51.982;5.878;2023-08-30T02:12:49;5.93;;;3.67;;
39032;SDS011;24794;51.982;5.878;2023-08-30T02:13:53;4.93;;;3.60;;
39032;SDS011;24794;51.982;5.878;2023-08-30T02:14:57;5.60;;;3.92;;
39032;SDS011;24794;51.982;5.878;2023-08-30T02:15:58;4.45;;;3.60;;
39032;SDS011;24794;51.982;5.878;2023-08-30T02:17:00;6.47;;;4.25;;
39032;SDS011;24794;51.982;5.878;2023-08-30T02:18:03;7.20;;;4.22;;
39032;SDS011;24794;51.982;5.878;2023-08-30T02:19:05;8.15;;;4.30;;
39032;SDS011;24794;51.982;5.878;2023-08-30T02:20:07;5.45;;;4.28;;
39032;SDS011;24794;51.982;5.878;2023-08-30T02:21:08;5.50;;;4.07;;
39032;SDS011;24794;51.982;5.878;2023-08-30T02:22:08;6.30;;;4.15;;
39032;SDS011;24794;51.982;5.878;2023-08-30T02:23:09;6.70;;;3.97;;
39032;SDS011;24794;51.982;5.878;2023-08-30T02:24:10;4.75;;;3.80;;
39032;SDS011;24794;51.982;5.878;2023-08-30T02:25:11;5.45;;;3.70;;
39032;SDS011;24794;51.982;5.878;2023-08-30T02:26:11;5.22;;;4.10;;
39032;SDS011;24794;51.982;5.878;2023-08-30T02:27:11;5.72;;;4.03;;
39032;SDS011;24794;51.982;5.878;2023-08-30T02:28:12;6.55;;;3.85;;
39032;SDS011;24794;51.982;5.878;2023-08-30T02:29:13;5.68;;;3.95;;
39032;SDS011;24794;51.982;5.878;2023-08-30T02:30:13;5.25;;;4.03;;
39032;SDS011;24794;51.982;5.878;2023-08-30T02:31:14;4.43;;;3.83;;
39032;SDS011;24794;51.982;5.878;2023-08-30T02:32:14;6.47;;;4.22;;
39032;SDS011;24794;51.982;5.878;2023-08-30T02:33:20;6.50;;;3.90;;
39032;SDS011;24794;51.982;5.878;2023-08-30T02:34:21;5.45;;;3.80;;
39032;SDS011;24794;51.982;5.878;2023-08-30T02:35:22;7.53;;;4.50;;
39032;SDS011;24794;51.982;5.878;2023-08-30T02:36:22;11.05;;;4.35;;
39032;SDS011;24794;51.982;5.878;2023-08-30T02:37:23;5.97;;;4.28;;
39032;SDS011;24794;51.982;5.878;2023-08-30T02:38:24;4.63;;;3.53;;
39032;SDS011;24794;51.982;5.878;2023-08-30T02:39:24;4.70;;;4.00;;
39032;SDS011;24794;51.982;5.878;2023-08-30T02:40:25;7.05;;;4.25;;
39032;SDS011;24794;51.982;5.878;2023-08-30T02:41:25;8.18;;;4.10;;
39032;SDS011;24794;51.982;5.878;2023-08-30T02:42:26;6.45;;;4.60;;
39032;SDS011;24794;51.982;5.878;2023-08-30T02:43:27;5.78;;;4.03;;
39032;SDS011;24794;51.982;5.878;2023-08-30T02:44:28;6.18;;;4.05;;
39032;SDS011;24794;51.982;5.878;2023-08-30T02:45:28;6.38;;;4.30;;
39032;SDS011;24794;51.982;5.878;2023-08-30T02:46:29;6.47;;;4.43;;
39032;SDS011;24794;51.982;5.878;2023-08-30T02:47:29;7.15;;;4.22;;
39032;SDS011;24794;51.982;5.878;2023-08-30T02:48:31;4.93;;;3.92;;
39032;SDS011;24794;51.982;5.878;2023-08-30T02:49:32;7.07;;;4.50;;
39032;SDS011;24794;51.982;5.878;2023-08-30T02:50:32;5.03;;;4.05;;
39032;SDS011;24794;51.982;5.878;2023-08-30T02:51:33;5.43;;;4.07;;
39032;SDS011;24794;51.982;5.878;2023-08-30T02:52:34;7.15;;;4.85;;
39032;SDS011;24794;51.982;5.878;2023-08-30T02:53:34;7.18;;;4.47;;
39032;SDS011;24794;51.982;5.878;2023-08-30T02:54:35;8.80;;;4.60;;
39032;SDS011;24794;51.982;5.878;2023-08-30T02:55:35;8.48;;;4.38;;
39032;SDS011;24794;51.982;5.878;2023-08-30T02:56:36;5.72;;;4.72;;
39032;SDS011;24794;51.982;5.878;2023-08-30T02:57:36;6.32;;;4.68;;
39032;SDS011;24794;51.982;5.878;2023-08-30T02:58:37;6.32;;;4.78;;
39032;SDS011;24794;51.982;5.878;2023-08-30T02:59:37;7.00;;;4.47;;
39032;SDS011;24794;51.982;5.878;2023-08-30T03:00:38;6.78;;;4.80;;
39032;SDS011;24794;51.982;5.878;2023-08-30T03:01:38;8.90;;;5.75;;
39032;SDS011;24794;51.982;5.878;2023-08-30T03:02:39;8.07;;;5.45;;
39032;SDS011;24794;51.982;5.878;2023-08-30T03:03:39;6.55;;;5.00;;
39032;SDS011;24794;51.982;5.878;2023-08-30T03:04:40;8.70;;;4.88;;
39032;SDS011;24794;51.982;5.878;2023-08-30T03:05:40;6.60;;;4.45;;
39032;SDS011;24794;51.982;5.878;2023-08-30T03:06:41;6.50;;;4.28;;
39032;SDS011;24794;51.982;5.878;2023-08-30T03:07:41;6.60;;;4.80;;
39032;SDS011;24794;51.982;5.878;2023-08-30T03:08:42;6.38;;;4.68;;
39032;SDS011;24794;51.982;5.878;2023-08-30T03:09:42;5.97;;;4.70;;
39032;SDS011;24794;51.982;5.878;2023-08-30T03:10:43;6.85;;;4.70;;
39032;SDS011;24794;51.982;5.878;2023-08-30T03:11:43;8.10;;;4.78;;
39032;SDS011;24794;51.982;5.878;2023-08-30T03:12:44;5.78;;;4.60;;
39032;SDS011;24794;51.982;5.878;2023-08-30T03:13:45;7.07;;;4.10;;
39032;SDS011;24794;51.982;5.878;2023-08-30T03:14:46;6.53;;;4.38;;
39032;SDS011;24794;51.982;5.878;2023-08-30T03:15:46;10.27;;;6.47;;
39032;SDS011;24794;51.982;5.878;2023-08-30T03:16:47;7.85;;;6.03;;
39032;SDS011;24794;51.982;5.878;2023-08-30T03:17:47;7.38;;;5.53;;
39032;SDS011;24794;51.982;5.878;2023-08-30T03:18:48;8.30;;;5.85;;
39032;SDS011;24794;51.982;5.878;2023-08-30T03:19:51;11.25;;;7.32;;
39032;SDS011;24794;51.982;5.878;2023-08-30T03:20:59;11.05;;;7.18;;
39032;SDS011;24794;51.982;5.878;2023-08-30T03:22:02;10.82;;;7.00;;
39032;SDS011;24794;51.982;5.878;2023-08-30T03:23:02;10.13;;;7.00;;
39032;SDS011;24794;51.982;5.878;2023-08-30T03:24:03;11.40;;;7.28;;
39032;SDS011;24794;51.982;5.878;2023-08-30T03:25:04;11.05;;;8.02;;
39032;SDS011;24794;51.982;5.878;2023-08-30T03:26:12;8.63;;;7.05;;
39032;SDS011;24794;51.982;5.878;2023-08-30T03:27:13;9.23;;;6.45;;
39032;SDS011;24794;51.982;5.878;2023-08-30T03:28:14;9.55;;;6.55;;
39032;SDS011;24794;51.982;5.878;2023-08-30T03:29:14;7.85;;;6.05;;
39032;SDS011;24794;51.982;5.878;2023-08-30T03:30:15;9.25;;;6.32;;
39032;SDS011;24794;51.982;5.878;2023-08-30T03:31:16;10.75;;;6.50;;
39032;SDS011;24794;51.982;5.878;2023-08-30T03:32:18;9.32;;;6.13;;
39032;SDS011;24794;51.982;5.878;2023-08-30T03:33:18;9.48;;;7.13;;
39032;SDS011;24794;51.982;5.878;2023-08-30T03:34:19;8.45;;;6.70;;
39032;SDS011;24794;51.982;5.878;2023-08-30T03:35:19;9.73;;;6.47;;
39032;SDS011;24794;51.982;5.878;2023-08-30T03:36:21;8.23;;;6.15;;
39032;SDS011;24794;51.982;5.878;2023-08-30T03:37:22;9.15;;;6.45;;
39032;SDS011;24794;51.982;5.878;2023-08-30T03:38:22;10.30;;;6.15;;
39032;SDS011;24794;51.982;5.878;2023-08-30T03:39:23;8.60;;;5.80;;
39032;SDS011;24794;51.982;5.878;2023-08-30T03:40:24;9.07;;;5.75;;
39032;SDS011;24794;51.982;5.878;2023-08-30T03:41:25;12.82;;;8.13;;
39032;SDS011;24794;51.982;5.878;2023-08-30T03:42:25;12.70;;;8.10;;
39032;SDS011;24794;51.982;5.878;2023-08-30T03:43:26;10.60;;;7.20;;
39032;SDS011;24794;51.982;5.878;2023-08-30T03:44:26;10.43;;;7.53;;
39032;SDS011;24794;51.982;5.878;2023-08-30T03:45:27;8.73;;;6.88;;
39032;SDS011;24794;51.982;5.878;2023-08-30T03:46:27;10.93;;;6.85;;
39032;SDS011;24794;51.982;5.878;2023-08-30T03:47:28;8.43;;;6.05;;
39032;SDS011;24794;51.982;5.878;2023-08-30T03:48:29;9.07;;;6.30;;
39032;SDS011;24794;51.982;5.878;2023-08-30T03:49:30;9.95;;;6.07;;
39032;SDS011;24794;51.982;5.878;2023-08-30T03:50:31;9.38;;;5.93;;
39032;SDS011;24794;51.982;5.878;2023-08-30T03:51:31;6.82;;;5.35;;
39032;SDS011;24794;51.982;5.878;2023-08-30T03:52:32;11.23;;;7.65;;
39032;SDS011;24794;51.982;5.878;2023-08-30T03:53:32;11.52;;;7.05;;
39032;SDS011;24794;51.982;5.878;2023-08-30T03:54:33;8.48;;;5.82;;
39032;SDS011;24794;51.982;5.878;2023-08-30T03:55:34;8.32;;;5.80;;
39032;SDS011;24794;51.982;5.878;2023-08-30T03:56:34;7.88;;;5.82;;
39032;SDS011;24794;51.982;5.878;2023-08-30T03:57:35;10.52;;;6.38;;
39032;SDS011;24794;51.982;5.878;2023-08-30T03:58:35;8.50;;;6.13;;
39032;SDS011;24794;51.982;5.878;2023-08-30T03:59:37;8.60;;;5.82;;
39032;SDS011;24794;51.982;5.878;2023-08-30T04:00:38;7.45;;;5.20;;
39032;SDS011;24794;51.982;5.878;2023-08-30T04:01:39;8.88;;;5.28;;
39032;SDS011;24794;51.982;5.878;2023-08-30T04:02:40;8.50;;;5.30;;
39032;SDS011;24794;51.982;5.878;2023-08-30T04:03:40;8.35;;;5.68;;
39032;SDS011;24794;51.982;5.878;2023-08-30T04:04:41;7.65;;;5.20;;
39032;SDS011;24794;51.982;5.878;2023-08-30T04:05:42;11.25;;;5.50;;
39032;SDS011;24794;51.982;5.878;2023-08-30T04:06:42;9.23;;;5.65;;
39032;SDS011;24794;51.982;5.878;2023-08-30T04:07:43;7.45;;;5.10;;
39032;SDS011;24794;51.982;5.878;2023-08-30T04:08:43;7.90;;;5.22;;
39032;SDS011;24794;51.982;5.878;2023-08-30T04:09:44;8.23;;;5.60;;
39032;SDS011;24794;51.982;5.878;2023-08-30T04:10:44;7.95;;;5.47;;
39032;SDS011;24794;51.982;5.878;2023-08-30T04:11:47;7.95;;;5.32;;
39032;SDS011;24794;51.982;5.878;2023-08-30T04:12:48;7.68;;;5.40;;
39032;SDS011;24794;51.982;5.878;2023-08-30T04:13:48;8.18;;;5.30;;
39032;SDS011;24794;51.982;5.878;2023-08-30T04:14:49;6.50;;;4.95;;
39032;SDS011;24794;51.982;5.878;2023-08-30T04:15:49;7.82;;;5.10;;
39032;SDS011;24794;51.982;5.878;2023-08-30T04:16:51;8.82;;;5.25;;
39032;SDS011;24794;51.982;5.878;2023-08-30T04:17:51;8.15;;;5.43;;
39032;SDS011;24794;51.982;5.878;2023-08-30T04:18:52;7.82;;;5.10;;
39032;SDS011;24794;51.982;5.878;2023-08-30T04:19:54;6.55;;;5.20;;
39032;SDS011;24794;51.982;5.878;2023-08-30T04:20:56;8.40;;;5.50;;
39032;SDS011;24794;51.982;5.878;2023-08-30T04:21:58;9.32;;;5.80;;
39032;SDS011;24794;51.982;5.878;2023-08-30T04:22:58;10.57;;;5.90;;
39032;SDS011;24794;51.982;5.878;2023-08-30T04:24:01;8.60;;;6.32;;
39032;SDS011;24794;51.982;5.878;2023-08-30T04:25:03;8.60;;;5.35;;
39032;SDS011;24794;51.982;5.878;2023-08-30T04:26:04;10.20;;;6.38;;
39032;SDS011;24794;51.982;5.878;2023-08-30T04:27:05;7.97;;;5.90;;
39032;SDS011;24794;51.982;5.878;2023-08-30T04:28:05;9.95;;;5.82;;
39032;SDS011;24794;51.982;5.878;2023-08-30T04:29:06;9.05;;;5.95;;
39032;SDS011;24794;51.982;5.878;2023-08-30T04:30:06;7.72;;;5.68;;
39032;SDS011;24794;51.982;5.878;2023-08-30T04:31:07;7.30;;;4.97;;
39032;SDS011;24794;51.982;5.878;2023-08-30T04:32:08;7.60;;;5.53;;
39032;SDS011;24794;51.982;5.878;2023-08-30T04:33:08;8.40;;;6.00;;
39032;SDS011;24794;51.982;5.878;2023-08-30T04:34:09;9.65;;;6.15;;
39032;SDS011;24794;51.982;5.878;2023-08-30T04:35:09;8.55;;;5.78;;
39032;SDS011;24794;51.982;5.878;2023-08-30T04:36:10;9.40;;;5.90;;
39032;SDS011;24794;51.982;5.878;2023-08-30T04:37:11;9.32;;;6.50;;
39032;SDS011;24794;51.982;5.878;2023-08-30T04:38:11;7.78;;;5.47;;
39032;SDS011;24794;51.982;5.878;2023-08-30T04:39:12;8.13;;;6.18;;
39032;SDS011;24794;51.982;5.878;2023-08-30T04:40:14;7.88;;;5.97;;
39032;SDS011;24794;51.982;5.878;2023-08-30T04:41:14;9.98;;;6.30;;
39032;SDS011;24794;51.982;5.878;2023-08-30T04:42:15;8.90;;;6.00;;
39032;SDS011;24794;51.982;5.878;2023-08-30T04:43:15;7.88;;;5.57;;
39032;SDS011;24794;51.982;5.878;2023-08-30T04:44:16;8.02;;;5.93;;
39032;SDS011;24794;51.982;5.878;2023-08-30T04:45:17;8.38;;;6.03;;
39032;SDS011;24794;51.982;5.878;2023-08-30T04:46:18;10.20;;;6.00;;
39032;SDS011;24794;51.982;5.878;2023-08-30T04:47:18;8.82;;;5.80;;
39032;SDS011;24794;51.982;5.878;2023-08-30T04:48:19;7.68;;;5.78;;
39032;SDS011;24794;51.982;5.878;2023-08-30T04:49:19;8.15;;;5.90;;
39032;SDS011;24794;51.982;5.878;2023-08-30T04:50:20;7.03;;;5.32;;
39032;SDS011;24794;51.982;5.878;2023-08-30T04:51:20;8.82;;;6.15;;
39032;SDS011;24794;51.982;5.878;2023-08-30T04:52:21;9.10;;;6.30;;
39032;SDS011;24794;51.982;5.878;2023-08-30T04:53:22;9.30;;;5.95;;
39032;SDS011;24794;51.982;5.878;2023-08-30T04:54:22;9.68;;;6.35;;
39032;SDS011;24794;51.982;5.878;2023-08-30T04:55:27;7.45;;;5.68;;
39032;SDS011;24794;51.982;5.878;2023-08-30T04:56:28;7.70;;;5.43;;
39032;SDS011;24794;51.982;5.878;2023-08-30T04:57:29;8.80;;;5.85;;
39032;SDS011;24794;51.982;5.878;2023-08-30T04:58:29;8.27;;;5.75;;
39032;SDS011;24794;51.982;5.878;2023-08-30T04:59:30;8.27;;;5.55;;
39032;SDS011;24794;51.982;5.878;2023-08-30T05:00:30;9.55;;;5.70;;
39032;SDS011;24794;51.982;5.878;2023-08-30T05:01:31;7.30;;;5.60;;
39032;SDS011;24794;51.982;5.878;2023-08-30T05:02:31;10.07;;;5.53;;
39032;SDS011;24794;51.982;5.878;2023-08-30T05:03:32;9.02;;;6.07;;
39032;SDS011;24794;51.982;5.878;2023-08-30T05:04:33;10.55;;;6.25;;
39032;SDS011;24794;51.982;5.878;2023-08-30T05:05:34;10.30;;;6.50;;
39032;SDS011;24794;51.982;5.878;2023-08-30T05:06:34;9.00;;;6.13;;
39032;SDS011;24794;51.982;5.878;2023-08-30T05:07:35;9.32;;;5.80;;
39032;SDS011;24794;51.982;5.878;2023-08-30T05:08:35;9.15;;;6.32;;
39032;SDS011;24794;51.982;5.878;2023-08-30T05:09:37;9.93;;;5.90;;
39032;SDS011;24794;51.982;5.878;2023-08-30T05:10:37;9.93;;;5.78;;
39032;SDS011;24794;51.982;5.878;2023-08-30T05:11:40;7.80;;;5.70;;
39032;SDS011;24794;51.982;5.878;2023-08-30T05:12:40;7.97;;;5.80;;
39032;SDS011;24794;51.982;5.878;2023-08-30T05:13:42;9.05;;;5.85;;
39032;SDS011;24794;51.982;5.878;2023-08-30T05:14:43;10.30;;;5.72;;
39032;SDS011;24794;51.982;5.878;2023-08-30T05:15:43;8.15;;;5.80;;
39032;SDS011;24794;51.982;5.878;2023-08-30T05:16:44;8.10;;;5.60;;
39032;SDS011;24794;51.982;5.878;2023-08-30T05:17:44;8.68;;;6.22;;
39032;SDS011;24794;51.982;5.878;2023-08-30T05:18:45;8.55;;;5.78;;
39032;SDS011;24794;51.982;5.878;2023-08-30T05:19:47;10.38;;;6.07;;
39032;SDS011;24794;51.982;5.878;2023-08-30T05:20:48;9.55;;;6.28;;
39032;SDS011;24794;51.982;5.878;2023-08-30T05:21:48;8.60;;;5.68;;
39032;SDS011;24794;51.982;5.878;2023-08-30T05:22:54;7.50;;;5.63;;
39032;SDS011;24794;51.982;5.878;2023-08-30T05:23:55;9.73;;;5.90;;
39032;SDS011;24794;51.982;5.878;2023-08-30T05:24:55;8.82;;;5.00;;
39032;SDS011;24794;51.982;5.878;2023-08-30T05:25:56;8.20;;;5.32;;
39032;SDS011;24794;51.982;5.878;2023-08-30T05:26:56;8.75;;;5.93;;
39032;SDS011;24794;51.982;5.878;2023-08-30T05:27:57;7.40;;;5.53;;
39032;SDS011;24794;51.982;5.878;2023-08-30T05:28:57;8.10;;;5.78;;
39032;SDS011;24794;51.982;5.878;2023-08-30T05:29:58;9.65;;;5.70;;
39032;SDS011;24794;51.982;5.878;2023-08-30T05:30:58;9.43;;;5.75;;
39032;SDS011;24794;51.982;5.878;2023-08-30T05:31:59;9.32;;;5.53;;
39032;SDS011;24794;51.982;5.878;2023-08-30T05:32:59;8.15;;;5.60;;
39032;SDS011;24794;51.982;5.878;2023-08-30T05:34:00;8.48;;;5.60;;
39032;SDS011;24794;51.982;5.878;2023-08-30T05:35:00;9.35;;;5.97;;
39032;SDS011;24794;51.982;5.878;2023-08-30T05:36:01;8.90;;;5.78;;
39032;SDS011;24794;51.982;5.878;2023-08-30T05:37:02;10.07;;;5.78;;
39032;SDS011;24794;51.982;5.878;2023-08-30T05:38:02;8.68;;;5.45;;
39032;SDS011;24794;51.982;5.878;2023-08-30T05:39:03;12.23;;;6.07;;
39032;SDS011;24794;51.982;5.878;2023-08-30T05:40:04;7.43;;;5.53;;
39032;SDS011;24794;51.982;5.878;2023-08-30T05:41:05;8.90;;;6.00;;
39032;SDS011;24794;51.982;5.878;2023-08-30T05:42:05;7.50;;;5.03;;
39032;SDS011;24794;51.982;5.878;2023-08-30T05:43:06;10.93;;;6.88;;
39032;SDS011;24794;51.982;5.878;2023-08-30T05:44:06;7.72;;;5.65;;
39032;SDS011;24794;51.982;5.878;2023-08-30T05:45:07;7.65;;;5.70;;
39032;SDS011;24794;51.982;5.878;2023-08-30T05:46:08;8.98;;;5.68;;
39032;SDS011;24794;51.982;5.878;2023-08-30T05:47:14;8.35;;;5.57;;
39032;SDS011;24794;51.982;5.878;2023-08-30T05:48:16;9.27;;;6.05;;
39032;SDS011;24794;51.982;5.878;2023-08-30T05:49:17;8.77;;;5.85;;
39032;SDS011;24794;51.982;5.878;2023-08-30T05:50:17;8.57;;;5.53;;
39032;SDS011;24794;51.982;5.878;2023-08-30T05:51:18;8.93;;;5.63;;
39032;SDS011;24794;51.982;5.878;2023-08-30T05:52:20;7.82;;;5.32;;
39032;SDS011;24794;51.982;5.878;2023-08-30T05:53:21;8.35;;;5.93;;
39032;SDS011;24794;51.982;5.878;2023-08-30T05:54:21;9.60;;;5.70;;
39032;SDS011;24794;51.982;5.878;2023-08-30T05:55:22;8.63;;;6.13;;
39032;SDS011;24794;51.982;5.878;2023-08-30T05:56:23;10.60;;;6.25;;
39032;SDS011;24794;51.982;5.878;2023-08-30T05:57:23;9.05;;;6.32;;
39032;SDS011;24794;51.982;5.878;2023-08-30T05:58:25;8.50;;;6.38;;
39032;SDS011;24794;51.982;5.878;2023-08-30T05:59:26;9.95;;;6.25;;
39032;SDS011;24794;51.982;5.878;2023-08-30T06:00:27;8.95;;;6.40;;
39032;SDS011;24794;51.982;5.878;2023-08-30T06:01:28;9.00;;;6.43;;
39032;SDS011;24794;51.982;5.878;2023-08-30T06:02:28;8.63;;;6.22;;
39032;SDS011;24794;51.982;5.878;2023-08-30T06:03:29;8.57;;;6.03;;
39032;SDS011;24794;51.982;5.878;2023-08-30T06:04:29;11.90;;;6.47;;
39032;SDS011;24794;51.982;5.878;2023-08-30T06:05:30;9.40;;;6.30;;
39032;SDS011;24794;51.982;5.878;2023-08-30T06:06:30;9.05;;;6.43;;
39032;SDS011;24794;51.982;5.878;2023-08-30T06:07:31;7.82;;;5.63;;
39032;SDS011;24794;51.982;5.878;2023-08-30T06:08:32;10.07;;;6.25;;
39032;SDS011;24794;51.982;5.878;2023-08-30T06:09:32;9.27;;;6.38;;
39032;SDS011;24794;51.982;5.878;2023-08-30T06:10:33;8.35;;;6.07;;
39032;SDS011;24794;51.982;5.878;2023-08-30T06:11:33;8.43;;;5.97;;
39032;SDS011;24794;51.982;5.878;2023-08-30T06:12:34;9.60;;;6.20;;